Time;durP1;ratioP1;P1;durP2;ratioP2;P2;SDS_P1;SDS_P2;PMS_P1;PMS_P2;Temp;Humidity;BMP_temperature;BMP_pressure;BME280_temperature;BME280_humidity;BME280_pressure;Samples;Min_cycle;Max_cycle;Signal;HPM_P1;HPM_P2
2020/12/15 00:02:25;;;;;;;76.03;36.45;;;;;;;4.62;71.72;100361.16;4204048;33;34159;-92
2020/12/15 00:04:57;;;;;;;72.53;32.83;;;;;;;4.87;70.61;100354.50;4205290;34;34870;-89
2020/12/15 00:07:29;;;;;;;81.43;34.13;;;;;;;4.78;70.79;100357.00;4215870;34;33690;-92
2020/12/15 00:10:02;;;;;;;86.32;35.95;;;;;;;4.80;70.71;100358.69;4192301;34;34431;-89
2020/12/15 00:12:34;;;;;;;83.03;35.35;;;;;;;4.68;71.23;100356.09;4201172;34;34616;-93
2020/12/15 00:15:07;;;;;;;70.78;33.85;;;;;;;4.91;70.49;100353.22;4193902;34;35085;-93
2020/12/15 00:17:39;;;;;;;73.22;33.47;;;;;;;4.67;71.29;100351.75;4203161;34;35668;-90
2020/12/15 00:20:11;;;;;;;74.82;33.70;;;;;;;4.86;70.61;100355.47;4215823;34;34536;-93
2020/12/15 00:22:43;;;;;;;74.20;34.95;;;;;;;5.04;70.15;100353.84;4194766;34;33521;-93
2020/12/15 00:25:16;;;;;;;78.40;34.60;;;;;;;4.91;70.56;100350.56;4194924;34;33830;-90
2020/12/15 00:27:48;;;;;;;79.95;36.00;;;;;;;4.80;71.07;100351.50;4217082;34;34619;-93
2020/12/15 00:30:25;;;;;;;78.22;36.83;;;;;;;4.62;71.62;100351.28;4157057;34;34233;-94
2020/12/15 00:32:57;;;;;;;82.05;37.20;;;;;;;4.83;70.98;100348.56;4194083;34;33954;-89
2020/12/15 00:35:29;;;;;;;78.10;35.13;;;;;;;4.31;72.61;100347.75;4190048;34;35137;-93
2020/12/15 00:38:01;;;;;;;79.32;34.90;;;;;;;4.31;73.04;100353.97;4189938;34;34576;-93
2020/12/15 00:40:35;;;;;;;67.97;32.28;;;;;;;4.50;72.14;100353.19;4206165;33;33994;-88
2020/12/15 00:43:07;;;;;;;72.00;33.78;;;;;;;4.33;72.72;100348.50;4215758;33;35411;-92
2020/12/15 00:45:44;;;;;;;74.87;35.00;;;;;;;4.51;72.16;100343.38;4219933;33;33855;-93
2020/12/15 00:48:30;;;;;;;75.80;34.72;;;;;;;4.70;71.43;100340.78;4225614;33;33196;-92
2020/12/15 00:51:17;;;;;;;71.47;34.88;;;;;;;4.46;72.20;100341.09;4209063;34;34797;-92
2020/12/15 00:53:49;;;;;;;75.75;35.33;;;;;;;4.34;72.71;100342.13;4177657;34;34568;-90
2020/12/15 00:56:22;;;;;;;71.35;33.40;;;;;;;4.48;72.50;100343.62;4190655;34;33911;-95
2020/12/15 00:59:02;;;;;;;;;;;;;;;4.57;71.75;100342.81;4184084;34;34340;-94
2020/12/15 01:01:37;;;;;;;67.10;32.60;;;;;;;4.69;71.55;100335.56;4203016;34;33117;-90
2020/12/15 01:04:10;;;;;;;66.40;31.60;;;;;;;4.73;71.18;100339.63;4205464;34;34650;-94
2020/12/15 01:06:56;;;;;;;71.18;33.95;;;;;;;4.21;73.23;100337.84;4209947;34;32827;-91
2020/12/15 01:09:30;;;;;;;72.25;32.05;;;;;;;4.46;72.53;100341.09;4203677;33;34718;-94
2020/12/15 01:12:11;;;;;;;69.15;33.35;;;;;;;4.16;73.81;100339.22;4210231;33;35067;-93
2020/12/15 01:14:44;;;;;;;66.60;31.50;;;;;;;4.07;73.86;100340.84;4208831;34;34408;-92
2020/12/15 01:17:17;;;;;;;63.83;32.30;;;;;;;4.01;73.83;100344.03;4204072;34;34424;-90
2020/12/15 01:19:49;;;;;;;67.12;32.55;;;;;;;4.04;73.97;100335.75;4219958;34;34563;-90
2020/12/15 01:22:22;;;;;;;64.55;30.05;;;;;;;4.19;73.64;100338.94;4205783;34;33937;-94
2020/12/15 01:25:31;;;;;;;;;;;;;;;4.01;73.83;100328.00;4132229;34;35265;-90
2020/12/15 01:28:05;;;;;;;52.10;25.62;;;;;;;4.28;73.25;100338.19;4197664;34;35457;-91
2020/12/15 01:30:37;;;;;;;53.25;27.25;;;;;;;3.84;74.30;100334.78;4196555;34;34339;-89
2020/12/15 01:33:12;;;;;;;53.08;26.83;;;;;;;4.31;72.22;100332.56;4184744;34;34265;-92
2020/12/15 01:35:48;;;;;;;50.70;26.52;;;;;;;4.17;72.84;100327.53;4195606;34;34481;-93
2020/12/15 01:38:22;;;;;;;60.80;29.73;;;;;;;4.13;73.07;100326.09;4204550;34;34163;-93
2020/12/15 01:40:55;;;;;;;59.25;30.55;;;;;;;4.33;72.44;100341.28;4205393;34;35608;-91
2020/12/15 01:43:31;;;;;;;54.83;29.23;;;;;;;4.20;73.12;100337.97;4206286;34;32453;-96
2020/12/15 01:46:27;;;;;;;;;;;;;;;4.34;72.33;100336.78;4213990;33;34041;-93
2020/12/15 01:49:03;;;;;;;59.28;29.70;;;;;;;4.86;71.06;100350.13;4217611;34;35556;-94
2020/12/15 01:51:37;;;;;;;54.00;28.73;;;;;;;4.59;71.24;100346.19;4204042;34;34058;-90
2020/12/15 01:54:10;;;;;;;65.95;32.28;;;;;;;4.07;73.71;100341.72;4193459;34;33278;-93
2020/12/15 01:56:44;;;;;;;64.10;30.35;;;;;;;4.44;72.55;100350.22;4182602;34;34726;-93
2020/12/15 01:59:18;;;;;;;62.53;30.98;;;;;;;4.55;72.29;100347.44;4185425;34;34320;-93
2020/12/15 02:01:53;;;;;;;62.78;31.42;;;;;;;4.15;73.53;100335.69;4204930;34;34673;-93
2020/12/15 02:04:27;;;;;;;57.50;29.40;;;;;;;4.31;72.89;100334.38;4212828;33;33881;-93
2020/12/15 02:07:00;;;;;;;52.67;27.35;;;;;;;4.56;72.03;100327.72;4194689;34;34806;-93
2020/12/15 02:09:33;;;;;;;54.22;29.17;;;;;;;4.45;72.18;100328.69;4194946;34;34208;-91
2020/12/15 02:12:10;;;;;;;54.92;28.05;;;;;;;4.42;72.52;100323.59;4183737;34;34374;-90
2020/12/15 02:14:44;;;;;;;57.28;28.17;;;;;;;4.09;73.28;100322.84;4207651;34;33412;-94
2020/12/15 02:17:17;;;;;;;51.70;27.10;;;;;;;4.03;73.29;100324.22;4196166;34;34363;-94
2020/12/15 02:20:07;;;;;;;58.95;27.35;;;;;;;4.02;73.12;100325.19;4192004;34;34264;-93
2020/12/15 02:22:52;;;;;;;52.25;26.23;;;;;;;4.52;71.86;100328.97;4206592;33;34366;-95
2020/12/15 02:25:26;;;;;;;57.85;27.95;;;;;;;4.28;72.07;100337.31;4219506;33;33126;-93
2020/12/15 02:28:18;;;;;;;57.58;28.08;;;;;;;4.56;71.29;100330.41;4166383;34;33130;-95
2020/12/15 02:31:11;;;;;;;54.53;26.85;;;;;;;4.48;71.26;100332.94;4221538;33;34546;-93
2020/12/15 02:33:44;;;;;;;52.42;27.67;;;;;;;4.87;69.77;100336.59;4210227;33;33758;-92
2020/12/15 02:36:17;;;;;;;58.13;30.45;;;;;;;5.06;68.90;100325.09;4206303;34;34018;-92
2020/12/15 02:39:13;;;;;;;56.80;27.35;;;;;;;4.58;70.64;100321.28;4189796;34;34483;-91
2020/12/15 02:41:52;;;;;;;57.72;28.50;;;;;;;4.78;70.04;100318.66;4207053;34;33530;-94
2020/12/15 02:44:24;;;;;;;54.17;28.83;;;;;;;5.01;69.44;100316.59;4177114;34;34199;-91
2020/12/15 02:46:57;;;;;;;55.12;27.52;;;;;;;5.32;68.30;100313.84;4204770;34;33611;-91
2020/12/15 02:49:30;;;;;;;55.12;27.98;;;;;;;5.00;68.98;100317.59;4196660;34;34690;-95
2020/12/15 02:52:52;;;;;;;52.05;26.55;;;;;;;5.21;68.42;100324.69;4211942;34;36729;-91
2020/12/15 02:55:26;;;;;;;42.78;22.77;;;;;;;4.99;68.93;100341.84;4206736;34;33522;-94
2020/12/15 02:58:21;;;;;;;39.83;23.33;;;;;;;4.56;69.52;100330.41;4198740;34;33921;-94
2020/12/15 03:00:54;;;;;;;44.67;24.55;;;;;;;4.29;70.43;100322.97;4186582;34;34046;-94
2020/12/15 03:03:48;;;;;;;43.67;23.42;;;;;;;4.32;70.95;100328.87;4218181;33;33423;-92
2020/12/15 03:06:22;;;;;;;47.28;25.20;;;;;;;4.58;69.82;100328.44;4231755;33;33640;-94
2020/12/15 03:09:10;;;;;;;47.10;25.95;;;;;;;4.31;70.71;100326.34;4212908;34;33775;-92
2020/12/15 03:11:43;;;;;;;51.45;26.15;;;;;;;4.50;70.41;100320.25;4231134;33;33905;-91
2020/12/15 03:14:16;;;;;;;57.05;30.80;;;;;;;4.63;70.05;100325.37;4218599;33;33778;-94
2020/12/15 03:16:49;;;;;;;60.08;30.25;;;;;;;4.14;71.47;100320.62;4218150;33;34399;-94
2020/12/15 03:19:37;;;;;;;59.20;30.40;;;;;;;4.39;70.72;100314.00;4184467;34;33465;-94
2020/12/15 03:22:25;;;;;;;;;;;;;;;4.40;71.08;100323.72;4208962;34;33131;-93
2020/12/15 03:24:58;;;;;;;54.97;27.90;;;;;;;4.28;71.52;100319.44;4218525;33;34226;-94
2020/12/15 03:27:52;;;;;;;60.97;30.73;;;;;;;4.38;71.18;100331.03;4174681;34;34311;-91
2020/12/15 03:30:26;;;;;;;60.33;31.45;;;;;;;4.60;70.45;100337.19;4170115;34;34012;-94
2020/12/15 03:33:02;;;;;;;55.80;29.98;;;;;;;4.44;71.09;100340.34;4189460;34;34251;-93
2020/12/15 03:35:48;;;;;;;56.88;29.80;;;;;;;4.39;70.94;100343.44;4174193;34;33240;-95
2020/12/15 03:38:21;;;;;;;61.60;31.45;;;;;;;4.07;72.16;100349.72;4190717;34;33905;-91
2020/12/15 03:40:55;;;;;;;61.60;31.83;;;;;;;4.11;72.02;100354.81;4201161;34;33298;-95
2020/12/15 03:43:52;;;;;;;62.13;29.02;;;;;;;4.01;72.39;100344.91;4154883;34;34272;-93
2020/12/15 03:46:38;;;;;;;60.78;30.45;;;;;;;3.90;72.94;100350.31;4193874;34;33481;-93
2020/12/15 03:49:10;;;;;;;61.50;30.15;;;;;;;4.37;71.31;100340.06;4180592;34;34186;-93
2020/12/15 03:51:45;;;;;;;62.67;30.73;;;;;;;4.54;70.40;100348.44;4174628;34;33788;-95
2020/12/15 03:54:42;;;;;;;55.95;28.05;;;;;;;4.48;70.63;100344.47;4187020;34;33053;-92
2020/12/15 03:57:57;;;;;;;52.30;27.85;;;;;;;4.78;69.79;100346.28;4125812;34;34948;-94
2020/12/15 04:00:30;;;;;;;52.50;27.95;;;;;;;4.12;71.58;100353.84;4193359;34;35559;-93
2020/12/15 04:03:04;;;;;;;54.17;28.95;;;;;;;4.68;69.90;100357.94;4207659;34;33401;-91
2020/12/15 04:05:38;;;;;;;54.58;28.55;;;;;;;4.60;69.82;100363.97;4200299;34;33901;-91
2020/12/15 04:08:10;;;;;;;58.80;30.75;;;;;;;4.60;70.07;100363.97;4204023;34;34474;-91
2020/12/15 04:10:44;;;;;;;54.83;28.92;;;;;;;4.69;69.58;100367.69;4186592;34;35136;-94
2020/12/15 04:13:29;;;;;;;52.22;27.67;;;;;;;4.61;69.99;100363.00;4192436;34;32885;-91
2020/12/15 04:16:02;;;;;;;53.53;27.67;;;;;;;4.93;69.02;100359.31;4221105;33;34421;-94
2020/12/15 04:18:48;;;;;;;50.05;26.85;;;;;;;5.03;68.58;100352.16;4199582;34;35387;-90
2020/12/15 04:21:20;;;;;;;52.55;28.23;;;;;;;5.03;68.44;100353.97;4181817;34;33892;-91
2020/12/15 04:23:54;;;;;;;48.60;28.23;;;;;;;5.18;68.26;100359.78;4178679;34;35276;-94
2020/12/15 04:26:43;;;;;;;46.88;26.65;;;;;;;5.22;67.87;100354.03;4216606;33;34319;-93
2020/12/15 04:29:28;;;;;;;48.28;26.73;;;;;;;5.11;67.86;100356.84;4223772;33;34301;-95
2020/12/15 04:32:14;;;;;;;43.47;22.92;;;;;;;4.29;70.90;100358.59;4217510;33;33119;-90
2020/12/15 04:34:47;;;;;;;37.45;21.10;;;;;;;4.71;69.66;100353.16;4197124;33;34029;-90
2020/12/15 04:37:19;;;;;;;33.85;19.87;;;;;;;4.91;68.97;100355.91;4236848;33;33706;-94
2020/12/15 04:39:56;;;;;;;38.10;20.80;;;;;;;3.82;72.53;100356.31;4236751;33;34651;-93
2020/12/15 04:42:30;;;;;;;34.15;18.02;;;;;;;3.95;72.21;100349.91;4225556;33;33781;-92
2020/12/15 04:45:05;;;;;;;28.25;17.17;;;;;;;4.41;71.06;100357.53;4235519;33;34266;-94
2020/12/15 04:47:46;;;;;;;31.85;17.77;;;;;;;4.29;71.27;100366.63;4225223;33;34569;-91
2020/12/15 04:50:21;;;;;;;29.70;17.55;;;;;;;4.33;70.96;100367.22;4211484;33;35317;-94
2020/12/15 04:52:58;;;;;;;34.33;18.60;;;;;;;4.40;70.46;100366.56;4211017;33;34827;-94
2020/12/15 04:55:33;;;;;;;32.13;18.90;;;;;;;3.76;72.68;100367.53;4211222;33;34938;-94
2020/12/15 04:58:22;;;;;;;35.25;19.27;;;;;;;4.18;71.67;100364.88;4184225;34;34060;-95
2020/12/15 05:01:19;;;;;;;30.40;17.95;;;;;;;4.29;71.25;100371.97;4195821;34;34280;-94
2020/12/15 05:04:04;;;;;;;32.80;16.90;;;;;;;4.45;70.52;100382.22;4212051;34;35227;-93
2020/12/15 05:06:53;;;;;;;32.90;18.37;;;;;;;4.76;69.69;100369.69;4213002;34;34064;-91
2020/12/15 05:09:30;;;;;;;33.20;17.92;;;;;;;4.19;71.32;100382.63;4194327;34;33980;-92
2020/12/15 05:12:05;;;;;;;30.17;16.10;;;;;;;3.47;73.70;100381.47;4204483;34;33449;-95
2020/12/15 05:14:50;;;;;;;30.40;17.58;;;;;;;3.72;73.04;100393.66;4196732;33;32935;-91
2020/12/15 05:17:32;;;;;;;35.17;19.83;;;;;;;3.72;73.35;100384.78;4209762;33;33142;-90
2020/12/15 05:20:08;;;;;;;29.33;17.27;;;;;;;4.05;72.46;100385.63;4220788;33;35434;-92
2020/12/15 05:22:46;;;;;;;30.92;18.87;;;;;;;3.86;72.96;100397.00;4204744;34;33625;-93
2020/12/15 05:25:31;;;;;;;33.00;18.75;;;;;;;4.16;71.63;100387.38;4209278;33;34080;-92
2020/12/15 05:28:14;;;;;;;32.70;17.62;;;;;;;4.25;71.99;100383.91;4216247;33;34359;-93
2020/12/15 05:30:47;;;;;;;34.50;19.62;;;;;;;4.22;71.74;100387.72;4220386;33;34204;-96
2020/12/15 05:33:29;;;;;;;34.05;18.00;;;;;;;4.29;71.22;100387.19;4210599;33;34270;-90
2020/12/15 05:36:02;;;;;;;35.50;18.92;;;;;;;4.33;71.35;100383.28;4208793;33;34475;-95
2020/12/15 05:39:07;;;;;;;33.50;16.80;;;;;;;4.11;71.46;100385.09;4212310;33;32377;-90
2020/12/15 05:41:40;;;;;;;31.17;17.80;;;;;;;4.20;71.66;100394.16;4208117;34;34809;-93
2020/12/15 05:44:29;;;;;;;34.55;18.92;;;;;;;4.26;71.49;100387.44;4202696;34;34804;-91
2020/12/15 05:47:04;;;;;;;33.40;17.67;;;;;;;4.34;70.96;100393.84;4217886;34;34465;-92
2020/12/15 05:49:41;;;;;;;30.55;17.52;;;;;;;4.37;71.22;100385.56;4186191;34;34535;-95
2020/12/15 05:52:13;;;;;;;32.65;17.27;;;;;;;3.87;72.76;100391.53;4184377;34;34063;-91
2020/12/15 05:54:46;;;;;;;30.02;16.75;;;;;;;3.86;72.83;100380.94;4230011;33;34577;-94
2020/12/15 05:57:22;;;;;;;32.70;18.30;;;;;;;3.97;72.21;100393.44;4207459;34;32769;-94
2020/12/15 06:00:11;;;;;;;29.12;17.10;;;;;;;3.83;73.23;100398.12;4196017;34;34686;-92
2020/12/15 06:02:43;;;;;;;32.05;16.98;;;;;;;4.18;71.79;100396.13;4207157;34;33682;-90
2020/12/15 06:05:16;;;;;;;32.33;16.60;;;;;;;4.68;70.34;100393.59;4205098;34;35435;-92
2020/12/15 06:07:52;;;;;;;34.72;18.35;;;;;;;4.78;69.61;100394.50;4218291;33;34201;-92
2020/12/15 06:10:26;;;;;;;32.42;18.08;;;;;;;4.57;70.75;100397.22;4196045;34;32277;-94
2020/12/15 06:13:03;;;;;;;33.35;18.58;;;;;;;4.05;72.01;100401.66;4182189;34;37066;-92
2020/12/15 06:15:37;;;;;;;31.80;16.58;;;;;;;4.13;72.09;100409.03;4206335;34;35053;-91
2020/12/15 06:18:10;;;;;;;32.58;17.27;;;;;;;4.52;70.72;100410.16;4218117;34;33609;-91
2020/12/15 06:20:45;;;;;;;30.88;17.73;;;;;;;4.46;70.78;100407.16;4202031;33;33747;-91
2020/12/15 06:23:18;;;;;;;35.75;18.87;;;;;;;4.24;71.88;100404.47;4177461;33;35009;-91
2020/12/15 06:25:51;;;;;;;31.05;17.73;;;;;;;4.16;72.03;100415.00;4189255;33;35348;-90
2020/12/15 06:28:31;;;;;;;33.47;18.83;;;;;;;3.91;72.93;100421.56;4212752;33;34400;-93
2020/12/15 06:31:03;;;;;;;33.83;17.95;;;;;;;4.34;71.65;100399.19;4213788;34;33976;-93
2020/12/15 06:33:36;;;;;;;35.38;18.90;;;;;;;4.37;71.50;100409.66;4189957;33;33742;-92
2020/12/15 06:36:08;;;;;;;37.83;21.10;;;;;;;4.62;70.83;100407.53;4199958;33;35083;-91
2020/12/15 06:38:40;;;;;;;39.75;21.17;;;;;;;4.90;70.04;100399.78;4201397;34;34540;-92
2020/12/15 06:41:20;;;;;;;37.30;19.98;;;;;;;4.05;72.57;100394.47;4198462;34;35028;-92
2020/12/15 06:44:04;;;;;;;35.15;18.20;;;;;;;3.96;73.39;100397.94;4216554;33;33611;-93
2020/12/15 06:46:37;;;;;;;36.35;18.95;;;;;;;3.57;74.57;100391.41;4193574;34;33412;-92
2020/12/15 06:49:11;;;;;;;32.45;19.05;;;;;;;4.22;72.52;100386.84;4217861;34;33840;-91
2020/12/15 06:51:43;;;;;;;31.33;17.33;;;;;;;4.40;71.71;100385.28;4217140;34;33797;-92
2020/12/15 06:54:28;;;;;;;36.05;18.02;;;;;;;4.26;71.96;100382.94;4215015;34;34472;-92
2020/12/15 06:57:10;;;;;;;36.05;19.10;;;;;;;4.50;71.16;100384.50;4195671;34;34598;-92
2020/12/15 06:59:48;;;;;;;34.80;18.60;;;;;;;4.15;72.99;100380.34;4205929;33;33410;-93
2020/12/15 07:02:28;;;;;;;35.85;18.40;;;;;;;3.94;73.22;100382.97;4196067;33;34609;-92
2020/12/15 07:05:24;;;;;;;41.53;18.85;;;;;;;4.08;72.78;100390.69;4211916;33;34492;-93
2020/12/15 07:08:01;;;;;;;42.17;20.62;;;;;;;3.74;74.04;100387.34;4224427;33;34633;-92
2020/12/15 07:10:38;;;;;;;41.03;20.17;;;;;;;3.89;73.86;100391.38;4206193;34;34639;-94
2020/12/15 07:13:13;;;;;;;43.78;22.08;;;;;;;4.10;73.29;100393.25;4165666;34;32858;-94
2020/12/15 07:15:45;;;;;;;44.63;21.12;;;;;;;3.94;73.65;100397.22;4218325;33;34571;-92
2020/12/15 07:18:18;;;;;;;41.67;20.92;;;;;;;4.12;73.45;100388.63;4193036;34;35660;-96
2020/12/15 07:21:13;;;;;;;39.42;20.37;;;;;;;3.90;74.04;100390.41;4184904;34;34384;-90
2020/12/15 07:23:48;;;;;;;41.75;20.23;;;;;;;4.04;73.64;100392.81;4190718;34;34070;-92
2020/12/15 07:26:36;;;;;;;41.42;20.00;;;;;;;4.01;73.88;100403.75;4197071;34;34945;-90
2020/12/15 07:29:08;;;;;;;42.42;19.70;;;;;;;4.31;72.75;100395.91;4187919;34;34976;-90
2020/12/15 07:31:43;;;;;;;40.97;19.73;;;;;;;4.13;73.31;100414.38;4190893;34;33792;-90
2020/12/15 07:34:16;;;;;;;45.47;20.27;;;;;;;3.30;76.47;100417.56;4212255;33;34052;-90
2020/12/15 07:36:51;;;;;;;40.67;19.70;;;;;;;3.55;75.83;100415.59;4194228;34;33818;-93
2020/12/15 07:39:23;;;;;;;41.28;19.15;;;;;;;3.62;75.20;100407.91;4202419;34;34533;-89
2020/12/15 07:42:03;;;;;;;42.35;19.67;;;;;;;3.70;74.80;100419.66;4196030;34;34771;-90
2020/12/15 07:44:35;;;;;;;40.38;19.15;;;;;;;3.85;74.43;100414.88;4201439;34;33472;-92
2020/12/15 07:47:07;;;;;;;39.25;20.48;;;;;;;3.74;74.71;100417.59;4198409;34;34121;-91
2020/12/15 07:49:39;;;;;;;44.50;20.77;;;;;;;3.56;75.49;100413.75;4216044;33;33803;-90
2020/12/15 07:52:12;;;;;;;36.15;18.95;;;;;;;3.64;75.59;100409.50;4198690;34;33001;-90
2020/12/15 07:54:44;;;;;;;41.08;20.83;;;;;;;3.75;75.27;100410.44;4192755;34;33246;-90
2020/12/15 07:57:16;;;;;;;40.63;18.12;;;;;;;3.54;75.14;100414.72;4192969;34;34391;-90
2020/12/15 07:59:49;;;;;;;40.95;18.90;;;;;;;3.63;75.23;100422.97;4197650;34;35277;-90
2020/12/15 08:02:21;;;;;;;44.90;19.67;;;;;;;3.43;76.23;100422.78;4187313;34;34345;-89
2020/12/15 08:05:12;;;;;;;40.17;18.27;;;;;;;3.93;74.75;100424.94;4200982;34;35276;-89
2020/12/15 08:07:52;;;;;;;42.10;19.10;;;;;;;3.95;74.55;100427.47;4190299;34;34386;-93
2020/12/15 08:10:27;;;;;;;41.83;19.45;;;;;;;3.50;75.40;100433.81;4194779;34;34403;-90
2020/12/15 08:13:02;;;;;;;44.72;20.23;;;;;;;3.53;75.79;100437.09;4207302;34;34663;-89
2020/12/15 08:15:39;;;;;;;41.10;18.12;;;;;;;3.53;76.31;100439.78;4193692;34;33297;-88
2020/12/15 08:18:11;;;;;;;44.65;18.25;;;;;;;3.42;76.59;100446.97;4193995;34;33466;-88
2020/12/15 08:20:46;;;;;;;42.92;17.70;;;;;;;3.84;75.23;100444.44;4197858;34;35020;-89
2020/12/15 08:23:18;;;;;;;44.40;19.25;;;;;;;3.43;76.78;100445.97;4206630;34;34859;-88
2020/12/15 08:25:56;;;;;;;41.55;19.42;;;;;;;4.04;74.66;100446.31;4194381;34;33297;-87
2020/12/15 08:28:28;;;;;;;42.10;19.67;;;;;;;4.01;74.84;100445.69;4210415;34;33857;-89
2020/12/15 08:31:09;;;;;;;38.92;16.15;;;;;;;3.95;74.95;100449.75;4195885;34;33601;-94
2020/12/15 08:33:42;;;;;;;34.08;14.60;;;;;;;3.88;74.68;100451.22;4193723;34;33901;-88
2020/12/15 08:36:17;;;;;;;32.75;15.50;;;;;;;3.81;74.84;100444.69;4207229;34;33257;-89
2020/12/15 08:38:50;;;;;;;35.63;14.87;;;;;;;3.50;76.05;100463.22;4202584;34;34623;-94
2020/12/15 08:41:23;;;;;;;33.63;15.50;;;;;;;3.09;77.12;100451.38;4204326;34;34748;-88
2020/12/15 08:43:55;;;;;;;31.90;14.13;;;;;;;3.69;75.04;100458.06;4192699;34;35232;-90
2020/12/15 08:46:34;;;;;;;29.65;14.10;;;;;;;3.67;74.94;100457.34;4207489;34;33470;-91
2020/12/15 08:49:13;;;;;;;;;;;;;;;3.40;75.64;100464.94;4194359;34;34530;-90
2020/12/15 08:51:50;;;;;;;36.10;13.35;;;;;;;3.79;74.54;100460.84;4195459;34;34982;-88
2020/12/15 08:54:24;;;;;;;31.27;14.57;;;;;;;3.68;74.66;100461.75;4194873;34;32844;-87
2020/12/15 08:57:00;;;;;;;29.12;13.13;;;;;;;3.32;75.97;100458.41;4205677;34;33154;-96
2020/12/15 08:59:32;;;;;;;30.85;13.55;;;;;;;3.29;75.73;100458.66;4204372;34;35213;-89
2020/12/15 09:02:05;;;;;;;30.77;14.57;;;;;;;3.60;74.92;100461.50;4192350;34;36247;-89
2020/12/15 09:04:39;;;;;;;28.85;13.93;;;;;;;4.05;73.52;100472.06;4188602;34;34398;-94
2020/12/15 09:07:35;;;;;;;34.30;16.00;;;;;;;4.01;73.63;100478.66;4198723;34;32402;-94
2020/12/15 09:10:25;;;;;;;35.75;16.62;;;;;;;3.77;74.91;100469.97;4210678;33;33235;-96
2020/12/15 09:13:14;;;;;;;35.45;15.63;;;;;;;3.48;75.58;100463.34;4187589;34;33850;-94
2020/12/15 09:15:54;;;;;;;37.05;16.20;;;;;;;3.66;75.18;100476.19;4176727;34;32433;-95
2020/12/15 09:18:46;;;;;;;36.33;15.80;;;;;;;4.01;73.89;100470.63;4171124;34;32919;-94
2020/12/15 09:21:59;;;;;;;33.08;14.93;;;;;;;3.78;74.70;100477.03;4176120;34;33160;-94
2020/12/15 09:24:43;;;;;;;34.25;15.45;;;;;;;3.95;74.36;100465.81;4180153;34;33357;-94
2020/12/15 09:27:36;;;;;;;29.45;14.13;;;;;;;4.09;73.72;100466.44;4162752;34;32885;-96
2020/12/15 09:30:31;;;;;;;38.63;15.68;;;;;;;4.07;73.50;100463.91;4173021;34;32236;-94
2020/12/15 09:33:25;;;;;;;32.65;13.77;;;;;;;3.70;75.09;100462.44;4206376;33;33243;-96
2020/12/15 09:36:28;;;;;;;35.15;15.50;;;;;;;3.60;74.44;100461.50;4165567;34;33061;-95
2020/12/15 09:39:03;;;;;;;35.40;16.00;;;;;;;4.04;73.67;100459.69;4160877;34;32725;-93
2020/12/15 09:42:19;;;;;;;39.85;15.27;;;;;;;3.72;74.83;100460.50;4194449;34;32182;-94
2020/12/15 09:45:23;;;;;;;34.00;14.80;;;;;;;4.25;72.91;100466.88;4174838;34;34029;-95
2020/12/15 09:48:13;;;;;;;41.50;16.67;;;;;;;4.76;71.66;100459.88;4196403;34;35125;-94
2020/12/15 09:50:55;;;;;;;45.12;16.48;;;;;;;4.28;73.31;100466.63;4184175;34;33850;-94
2020/12/15 09:53:40;;;;;;;36.15;17.02;;;;;;;4.37;73.40;100471.22;4202327;34;33737;-94
2020/12/15 09:56:43;;;;;;;34.33;15.60;;;;;;;4.69;71.90;100459.56;4187112;34;34940;-93
2020/12/15 09:59:36;;;;;;;35.70;15.48;;;;;;;4.65;71.75;100462.66;4181263;34;33537;-93
2020/12/15 10:02:08;;;;;;;44.33;17.55;;;;;;;4.76;71.28;100471.47;4184348;34;33265;-95
2020/12/15 10:04:41;;;;;;;38.42;17.30;;;;;;;4.19;73.21;100462.91;4200655;34;33351;-94
2020/12/15 10:07:13;;;;;;;44.30;18.02;;;;;;;4.29;73.31;100460.28;4176644;34;262369;-95
2020/12/15 10:09:49;;;;;;;42.03;18.20;;;;;;;4.29;73.52;100456.78;4181879;34;35888;-94
2020/12/15 10:12:22;;;;;;;37.70;16.80;;;;;;;3.95;74.76;100464.94;4178666;34;34690;-93
2020/12/15 10:14:56;;;;;;;36.20;15.98;;;;;;;4.02;74.25;100460.78;4178925;34;33940;-93
2020/12/15 10:17:32;;;;;;;40.08;17.77;;;;;;;4.03;74.40;100457.97;4179458;34;35636;-94
2020/12/15 10:20:20;;;;;;;32.78;14.82;;;;;;;3.82;75.24;100457.94;4177913;34;34615;-93
2020/12/15 10:22:52;;;;;;;29.75;14.77;;;;;;;3.90;74.33;100454.63;4172401;34;33578;-95
2020/12/15 10:25:25;;;;;;;30.05;13.90;;;;;;;3.36;75.92;100453.66;4182298;34;34683;-94
2020/12/15 10:28:00;;;;;;;28.38;12.50;;;;;;;4.06;73.65;100456.88;4175586;34;34030;-94
2020/12/15 10:30:50;;;;;;;26.70;12.23;;;;;;;4.18;72.31;100455.00;4195504;34;35284;-94
2020/12/15 10:33:22;;;;;;;27.50;11.95;;;;;;;4.45;71.71;100450.97;4192898;34;34593;-94
2020/12/15 10:36:14;;;;;;;29.87;13.48;;;;;;;4.12;72.87;100458.19;4162393;34;32241;-95
2020/12/15 10:38:49;;;;;;;26.10;11.98;;;;;;;3.96;72.95;100461.28;4174130;34;34576;-94
2020/12/15 10:41:39;;;;;;;28.40;13.48;;;;;;;4.12;72.77;100455.53;4195099;34;34050;-94
2020/12/15 10:44:15;;;;;;;25.85;11.60;;;;;;;4.10;73.28;100457.44;4197433;33;34274;-94
2020/12/15 10:46:54;;;;;;;26.55;13.07;;;;;;;4.30;72.42;100455.81;4182464;34;34105;-94
2020/12/15 10:49:29;;;;;;;26.55;12.73;;;;;;;4.01;73.09;100451.91;4203703;34;34433;-94
2020/12/15 10:52:17;;;;;;;23.33;10.88;;;;;;;4.16;72.63;100444.44;4186332;34;34022;-94
2020/12/15 10:54:50;;;;;;;22.37;11.07;;;;;;;3.69;73.89;100450.06;4191693;34;34479;-93
2020/12/15 10:57:24;;;;;;;21.15;10.63;;;;;;;4.15;72.30;100444.56;4180163;34;33932;-95
2020/12/15 10:59:56;;;;;;;30.10;12.60;;;;;;;3.94;73.05;100442.69;4204557;34;32989;-96
2020/12/15 11:02:41;;;;;;;26.77;11.98;;;;;;;4.00;73.35;100444.84;4191991;34;32955;-94
2020/12/15 11:05:14;;;;;;;24.90;11.55;;;;;;;4.20;72.81;100442.34;4187383;34;34216;-95
2020/12/15 11:07:48;;;;;;;26.80;11.88;;;;;;;4.21;72.51;100444.03;4192895;34;33877;-94
2020/12/15 11:10:21;;;;;;;26.98;12.88;;;;;;;3.99;73.18;100445.81;4166205;34;34691;-93
2020/12/15 11:12:54;;;;;;;32.08;12.13;;;;;;;4.02;73.39;100437.53;4180782;34;34910;-93
2020/12/15 11:15:27;;;;;;;24.98;12.13;;;;;;;4.34;72.37;100438.47;4202711;34;33900;-93
2020/12/15 11:18:01;;;;;;;27.90;13.38;;;;;;;4.44;72.16;100433.22;4188333;34;34032;-92
2020/12/15 11:20:33;;;;;;;26.77;12.65;;;;;;;4.58;71.61;100436.41;4189854;34;33490;-92
2020/12/15 11:23:06;;;;;;;37.53;15.73;;;;;;;4.73;71.36;100423.53;4201246;34;33545;-92
2020/12/15 11:25:38;;;;;;;28.17;13.15;;;;;;;4.71;71.68;100425.47;4167144;34;34575;-92
2020/12/15 11:28:10;;;;;;;33.20;14.80;;;;;;;4.13;73.58;100417.94;4202513;34;33959;-96
2020/12/15 11:30:43;;;;;;;41.13;16.23;;;;;;;4.71;71.86;100414.75;4186721;34;34519;-95
2020/12/15 11:33:31;;;;;;;38.00;16.20;;;;;;;4.51;72.56;100419.16;4196124;34;32883;-95
2020/12/15 11:36:04;;;;;;;38.15;15.90;;;;;;;4.91;71.36;100414.84;4206182;34;34346;-92
2020/12/15 11:38:43;;;;;;;38.40;17.37;;;;;;;4.69;71.66;100413.22;4189150;34;35216;-96
2020/12/15 11:41:15;;;;;;;46.22;20.80;;;;;;;4.76;71.81;100409.87;4188058;34;35167;-92
2020/12/15 11:43:47;;;;;;;37.75;18.50;;;;;;;4.73;72.08;100412.81;4182132;34;34509;-92
2020/12/15 11:46:20;;;;;;;44.78;19.62;;;;;;;3.98;75.16;100405.81;4205338;34;35179;-95
2020/12/15 11:49:11;;;;;;;40.72;18.98;;;;;;;3.61;76.64;100408.88;4185373;34;33765;-94
2020/12/15 11:51:43;;;;;;;34.67;15.93;;;;;;;3.87;75.69;100412.06;4201490;34;34267;-94
2020/12/15 11:54:18;;;;;;;31.60;14.77;;;;;;;3.34;77.77;100412.84;4180489;34;34957;-94
2020/12/15 11:56:51;;;;;;;29.90;13.43;;;;;;;4.00;75.31;100412.75;4191365;34;34312;-94
2020/12/15 11:59:37;;;;;;;29.40;13.50;;;;;;;3.88;75.36;100409.28;4168447;34;33919;-95
2020/12/15 12:02:12;;;;;;;27.65;12.18;;;;;;;4.05;74.45;100397.16;4177575;34;34813;-91
2020/12/15 12:04:44;;;;;;;29.85;12.27;;;;;;;3.78;75.59;100394.13;4177256;34;33981;-93
2020/12/15 12:07:16;;;;;;;24.37;12.57;;;;;;;3.89;75.07;100402.09;4176836;34;34342;-92
2020/12/15 12:09:49;;;;;;;27.62;12.32;;;;;;;4.23;73.94;100389.37;4187754;34;34682;-92
2020/12/15 12:12:22;;;;;;;23.20;10.95;;;;;;;3.94;74.64;100399.91;4200418;34;34360;-93